Time;durP1;ratioP1;P1;durP2;ratioP2;P2;SDS_P1;SDS_P2;PMS_P1;PMS_P2;Temp;Humidity;BMP_temperature;BMP_pressure;BME280_temperature;BME280_humidity;BME280_pressure;Samples;Min_cycle;Max_cycle;Signal;HPM_P1;HPM_P2
2021/12/26 00:00:22;;;;;;;3.60;3.50;;;;;;;-5.13;63.12;100177.64;102281;1317;95636;-78
2021/12/26 00:03:04;;;;;;;3.80;3.70;;;;;;;-5.10;63.15;100177.58;102084;1317;140020;-77
2021/12/26 00:05:33;;;;;;;3.40;3.30;;;;;;;-5.09;63.61;100176.40;102143;1318;110833;-77
2021/12/26 00:08:00;;;;;;;3.70;3.60;;;;;;;-5.04;63.12;100175.52;102146;1318;95221;-77
2021/12/26 00:10:29;;;;;;;3.90;3.80;;;;;;;-5.00;63.16;100169.38;102141;1318;139931;-77
2021/12/26 00:12:57;;;;;;;3.90;3.80;;;;;;;-5.04;62.99;100170.86;102223;1318;109483;-77
2021/12/26 00:15:25;;;;;;;4.30;4.20;;;;;;;-5.09;62.83;100178.11;102079;1319;140011;-77
2021/12/26 00:17:53;;;;;;;3.50;3.40;;;;;;;-5.10;62.97;100181.36;102217;1318;95253;-77
2021/12/26 00:20:20;;;;;;;4.10;4.00;;;;;;;-5.10;62.82;100182.60;102217;1317;95268;-76
2021/12/26 00:22:49;;;;;;;3.50;3.40;;;;;;;-5.15;62.96;100187.08;101997;1318;139450;-77
2021/12/26 00:25:17;;;;;;;4.00;3.90;;;;;;;-5.23;63.10;100185.08;102212;1318;109811;-77
2021/12/26 00:27:45;;;;;;;3.80;3.70;;;;;;;-5.29;63.58;100188.89;102142;1322;141550;-77
2021/12/26 00:30:15;;;;;;;3.60;3.50;;;;;;;-5.19;63.58;100188.34;102267;1317;95275;-77
2021/12/26 00:32:44;;;;;;;3.30;3.20;;;;;;;-5.19;63.23;100193.87;102319;1318;109831;-77
2021/12/26 00:35:14;;;;;;;3.60;3.50;;;;;;;-5.15;63.13;100187.27;102045;1321;140362;-77
2021/12/26 00:37:42;;;;;;;3.70;3.60;;;;;;;-5.24;63.25;100189.73;101237;1320;95164;-78
2021/12/26 00:40:13;;;;;;;3.60;3.50;;;;;;;-5.25;63.65;100185.55;101722;1317;140164;-77
2021/12/26 00:42:41;;;;;;;3.40;3.30;;;;;;;-5.23;63.39;100187.36;102155;1317;109433;-78
2021/12/26 00:45:10;;;;;;;3.60;3.50;;;;;;;-5.24;63.17;100179.35;102136;1318;140406;-78
2021/12/26 00:47:38;;;;;;;3.80;3.70;;;;;;;-5.29;63.22;100180.42;102220;1324;96809;-78
2021/12/26 00:50:08;;;;;;;3.70;3.60;;;;;;;-5.37;63.91;100178.21;102224;1317;95185;-78
2021/12/26 00:52:36;;;;;;;3.80;3.70;;;;;;;-5.37;63.94;100181.69;102259;1319;141416;-78
2021/12/26 00:55:07;;;;;;;3.50;3.40;;;;;;;-5.34;63.58;100186.63;102336;1317;110237;-78
2021/12/26 00:57:35;;;;;;;3.50;3.40;;;;;;;-5.42;63.49;100191.71;102343;1318;138600;-78
2021/12/26 01:00:06;;;;;;;3.70;3.60;;;;;;;-5.50;63.75;100192.33;102374;1317;95699;-78
2021/12/26 01:02:34;;;;;;;3.90;3.80;;;;;;;-5.50;63.90;100195.40;102215;1318;108833;-77
2021/12/26 01:05:04;;;;;;;3.50;3.40;;;;;;;-5.42;63.93;100195.86;101936;1319;140729;-78
2021/12/26 01:10:06;;;;;;;3.80;3.70;;;;;;;-5.40;63.44;100201.16;101967;1317;139847;-78
2021/12/26 01:12:35;;;;;;;4.30;4.20;;;;;;;-5.45;63.67;100202.51;102238;1325;110063;-78
2021/12/26 01:15:08;;;;;;;4.00;3.90;;;;;;;-5.47;63.97;100199.16;102198;1320;141199;-78
2021/12/26 01:17:43;;;;;;;3.60;3.50;;;;;;;-5.46;63.98;100196.94;102345;1318;95597;-78
2021/12/26 01:20:26;;;;;;;3.40;3.30;;;;;;;-5.46;63.84;100191.77;102425;1320;95207;-78
2021/12/26 01:22:54;;;;;;;3.90;3.80;;;;;;;-5.42;63.85;100189.98;102068;1320;140279;-78
2021/12/26 01:25:22;;;;;;;3.90;3.80;;;;;;;-5.42;63.80;100190.34;102314;1318;110322;-78
2021/12/26 01:27:49;;;;;;;3.50;3.40;;;;;;;-5.42;63.82;100187.92;102409;1317;140740;-78
2021/12/26 01:30:18;;;;;;;3.50;3.40;;;;;;;-5.36;63.63;100191.58;102320;1323;95238;-78
2021/12/26 01:32:50;;;;;;;3.60;3.50;;;;;;;-5.33;63.74;100194.28;102172;1321;141305;-78
2021/12/26 01:35:41;;;;;;;3.90;3.80;;;;;;;-5.42;63.33;100189.84;101996;1318;110295;-78
2021/12/26 01:38:34;;;;;;;3.60;3.50;;;;;;;-5.40;64.15;100191.95;102359;1318;95774;-78
2021/12/26 01:41:10;;;;;;;3.70;3.60;;;;;;;-5.30;63.84;100189.72;102209;1317;141521;-78
2021/12/26 01:43:59;;;;;;;3.70;3.60;;;;;;;-5.28;63.67;100191.70;102359;1318;109433;-78
2021/12/26 01:46:36;;;;;;;3.80;3.70;;;;;;;-5.26;63.45;100191.23;102229;1318;140035;-78
2021/12/26 01:49:17;;;;;;;4.10;4.00;;;;;;;-5.30;63.51;100192.48;102328;1320;95338;-78
2021/12/26 01:51:47;;;;;;;3.80;3.70;;;;;;;-5.37;63.42;100193.45;102146;1319;141608;-78
2021/12/26 01:54:28;;;;;;;3.50;3.40;;;;;;;-5.36;63.49;100194.86;102374;1322;109675;-78
2021/12/26 01:56:57;;;;;;;3.70;3.60;;;;;;;-5.33;63.55;100198.05;102222;1319;140480;-78
2021/12/26 01:59:25;;;;;;;3.90;3.80;;;;;;;-5.37;63.49;100199.86;102279;1321;95626;-78
2021/12/26 02:01:58;;;;;;;3.70;3.60;;;;;;;-5.44;63.56;100203.39;102516;1323;95255;-78
2021/12/26 02:04:28;;;;;;;4.00;3.90;;;;;;;-5.45;63.58;100208.55;102555;1320;139486;-78
2021/12/26 02:06:59;;;;;;;3.70;3.60;;;;;;;-5.39;63.79;100207.91;102726;1324;110436;-78
2021/12/26 02:09:27;;;;;;;3.70;3.60;;;;;;;-5.38;63.28;100207.27;102892;1323;139388;-79
2021/12/26 02:11:56;;;;;;;3.80;3.70;;;;;;;-5.45;63.40;100204.40;103038;1318;95408;-79
2021/12/26 02:14:24;;;;;;;3.70;3.60;;;;;;;-5.47;63.60;100204.35;102469;1320;109602;-78
2021/12/26 02:17:30;;;;;;;3.60;3.50;;;;;;;-5.34;63.45;100201.86;101881;1323;141482;-78
2021/12/26 02:20:24;;;;;;;4.10;4.00;;;;;;;-5.37;63.19;100197.95;101880;1327;95726;-77
2021/12/26 02:22:59;;;;;;;3.90;3.80;;;;;;;-5.44;63.08;100197.34;102330;1321;140711;-78
2021/12/26 02:25:33;;;;;;;3.70;3.60;;;;;;;-5.46;63.58;100197.30;102810;1318;109373;-79
2021/12/26 02:28:00;;;;;;;3.60;3.50;;;;;;;-5.43;63.27;100197.55;102476;1322;141399;-78
2021/12/26 02:30:28;;;;;;;3.70;3.60;;;;;;;-5.45;63.25;100199.92;102479;1318;95241;-77
2021/12/26 02:32:59;;;;;;;3.70;3.60;;;;;;;-5.49;63.23;100204.65;102558;1319;95244;-78
2021/12/26 02:35:27;;;;;;;4.10;4.00;;;;;;;-5.52;63.33;100204.19;102350;1320;139024;-78
2021/12/26 02:37:56;;;;;;;3.70;3.60;;;;;;;-5.52;63.58;100209.54;102476;1319;109726;-77
2021/12/26 02:40:24;;;;;;;3.70;3.60;;;;;;;-5.48;63.20;100210.73;102214;1318;139998;-78
2021/12/26 02:42:51;;;;;;;3.60;3.50;;;;;;;-5.48;63.48;100214.67;102537;1317;95226;-78
2021/12/26 02:45:20;;;;;;;3.80;3.70;;;;;;;-5.55;63.49;100215.48;102691;1317;139069;-78
2021/12/26 02:47:50;;;;;;;3.80;3.70;;;;;;;-5.63;63.55;100217.63;102588;1319;108302;-77
2021/12/26 02:50:29;;;;;;;4.00;3.90;;;;;;;-5.64;63.57;100212.55;102507;1320;95719;-78
2021/12/26 02:53:00;;;;;;;3.70;3.60;;;;;;;-5.67;63.69;100211.77;102652;1321;141557;-78
2021/12/26 02:55:28;;;;;;;4.00;3.90;;;;;;;-5.64;63.80;100211.55;102649;1322;109643;-78
2021/12/26 02:58:00;;;;;;;3.80;3.70;;;;;;;-5.67;63.62;100209.52;102435;1319;140144;-78
2021/12/26 03:00:31;;;;;;;4.10;4.00;;;;;;;-5.72;63.87;100208.84;102545;1317;95266;-78
2021/12/26 03:03:03;;;;;;;3.70;3.60;;;;;;;-5.65;64.07;100209.95;102509;1318;95848;-77
2021/12/26 03:05:35;;;;;;;3.80;3.70;;;;;;;-5.58;63.69;100210.34;102332;1317;139510;-77
2021/12/26 03:08:05;;;;;;;3.90;3.80;;;;;;;-5.56;63.70;100205.41;103144;1322;108773;-77
2021/12/26 03:10:33;;;;;;;4.30;4.20;;;;;;;-5.51;63.60;100207.33;102295;1315;138734;-78
2021/12/26 03:13:04;;;;;;;3.90;3.80;;;;;;;-5.57;63.70;100209.20;102037;1319;95270;-78
2021/12/26 03:15:33;;;;;;;3.70;3.60;;;;;;;-5.58;63.91;100214.88;102119;1319;140358;-79
2021/12/26 03:18:01;;;;;;;3.80;3.70;;;;;;;-5.55;63.91;100217.73;102519;1317;109100;-78
2021/12/26 03:20:34;;;;;;;3.70;3.60;;;;;;;-5.56;63.83;100219.95;102336;1322;95681;-78
2021/12/26 03:23:02;;;;;;;4.20;4.10;;;;;;;-5.54;63.91;100218.64;102338;1317;140259;-78
2021/12/26 03:25:34;;;;;;;3.70;3.60;;;;;;;-5.52;63.48;100221.48;102436;1319;109287;-78
2021/12/26 03:28:04;;;;;;;4.00;3.90;;;;;;;-5.53;63.51;100216.75;102583;1323;139604;-78
2021/12/26 03:30:33;;;;;;;3.80;3.70;;;;;;;-5.56;63.50;100217.70;103241;1315;95276;-78
2021/12/26 03:33:02;;;;;;;4.30;4.20;;;;;;;-5.55;63.59;100214.27;103104;1325;95282;-78
2021/12/26 03:35:30;;;;;;;4.30;4.20;;;;;;;-5.60;63.49;100213.23;103187;1321;138827;-78
2021/12/26 03:37:59;;;;;;;3.90;3.80;;;;;;;-5.62;63.37;100210.77;103119;1320;110270;-79
2021/12/26 03:40:46;;;;;;;3.70;3.60;;;;;;;-5.55;63.65;100212.54;102649;1319;141469;-78
2021/12/26 03:43:14;;;;;;;4.10;4.00;;;;;;;-5.52;63.29;100220.07;102861;1320;95575;-78
2021/12/26 03:45:48;;;;;;;4.60;4.50;;;;;;;-5.56;63.42;100224.46;103088;1318;138161;-79
2021/12/26 03:48:18;;;;;;;4.00;3.90;;;;;;;-5.59;63.58;100225.02;103015;1316;110054;-79
2021/12/26 03:50:46;;;;;;;3.90;3.80;;;;;;;-5.64;63.63;100222.45;102866;1321;95244;-79
2021/12/26 03:53:15;;;;;;;3.80;3.70;;;;;;;-5.65;63.85;100229.15;102737;1321;139706;-79
2021/12/26 03:55:46;;;;;;;3.80;3.70;;;;;;;-5.60;63.60;100230.02;103181;1320;107490;-78
2021/12/26 03:58:14;;;;;;;4.10;4.00;;;;;;;-5.64;63.62;100229.70;103270;1318;140685;-79
2021/12/26 04:00:44;;;;;;;3.90;3.80;;;;;;;-5.70;63.72;100226.38;103174;1320;95182;-79
2021/12/26 04:03:13;;;;;;;3.90;3.80;;;;;;;-5.65;63.92;100230.51;103205;1318;139842;-78
2021/12/26 04:05:50;;;;;;;3.60;3.50;;;;;;;-5.63;63.83;100234.39;103373;1320;109365;-79
2021/12/26 04:08:17;;;;;;;4.10;4.00;;;;;;;-5.66;63.76;100236.70;103122;1321;108771;-79
2021/12/26 04:10:45;;;;;;;4.70;4.60;;;;;;;-5.73;63.57;100236.98;103059;1324;141389;-78
2021/12/26 04:13:13;;;;;;;3.80;3.70;;;;;;;-5.74;63.85;100237.12;103096;1319;95219;-79
2021/12/26 04:15:41;;;;;;;3.80;3.70;;;;;;;-5.70;63.81;100237.61;102154;1320;140216;-78
2021/12/26 04:18:11;;;;;;;3.90;3.80;;;;;;;-5.75;63.70;100237.95;102608;1318;110508;-78
2021/12/26 04:20:39;;;;;;;4.60;4.50;;;;;;;-5.77;63.68;100235.46;102405;1319;95962;-78
2021/12/26 04:23:07;;;;;;;3.80;3.70;;;;;;;-5.78;64.03;100233.50;102378;1323;140351;-78
2021/12/26 04:25:34;;;;;;;3.80;3.70;;;;;;;-5.77;64.08;100230.11;102818;1320;109356;-79
2021/12/26 04:28:03;;;;;;;3.80;3.70;;;;;;;-5.75;63.97;100228.95;102776;1318;138830;-79
2021/12/26 04:30:30;;;;;;;3.90;3.80;;;;;;;-5.75;63.78;100228.62;102820;1320;95180;-79
2021/12/26 04:32:58;;;;;;;3.80;3.70;;;;;;;-5.80;63.64;100228.95;102915;1319;95318;-79
2021/12/26 04:35:26;;;;;;;3.90;3.80;;;;;;;-5.78;63.95;100231.27;102823;1318;139623;-79
2021/12/26 04:37:54;;;;;;;3.60;3.50;;;;;;;-5.78;63.94;100230.91;102846;1317;109743;-78
2021/12/26 04:40:22;;;;;;;3.80;3.70;;;;;;;-5.77;63.80;100228.71;102812;1318;141140;-79
2021/12/26 04:43:10;;;;;;;4.00;3.90;;;;;;;-5.79;63.57;100225.70;103051;1317;95255;-78
2021/12/26 04:45:44;;;;;;;3.90;3.80;;;;;;;-5.80;63.83;100226.69;102812;1318;139823;-79
2021/12/26 04:48:40;;;;;;;3.60;3.50;;;;;;;-5.76;63.65;100224.27;102977;1318;109838;-78
2021/12/26 04:51:09;;;;;;;3.60;3.50;;;;;;;-5.73;63.34;100222.64;102478;1318;95238;-78
2021/12/26 04:53:39;;;;;;;3.50;3.40;;;;;;;-5.73;63.21;100228.33;102425;1318;139406;-78
2021/12/26 04:56:07;;;;;;;4.10;4.00;;;;;;;-5.82;63.79;100229.56;102558;1320;107242;-78
2021/12/26 04:58:35;;;;;;;4.00;3.90;;;;;;;-5.77;63.70;100233.21;102417;1321;141028;-78
2021/12/26 05:01:04;;;;;;;3.60;3.50;;;;;;;-5.68;63.50;100236.63;102856;1318;95081;-79
2021/12/26 05:03:33;;;;;;;4.00;3.90;;;;;;;-5.73;63.00;100236.64;102714;1319;138488;-78
2021/12/26 05:06:00;;;;;;;3.90;3.80;;;;;;;-5.76;62.93;100231.18;102900;1320;109913;-78
2021/12/26 05:08:28;;;;;;;3.80;3.70;;;;;;;-5.83;63.13;100235.08;102935;1317;108653;-78
2021/12/26 05:10:56;;;;;;;4.10;4.00;;;;;;;-5.87;63.27;100237.16;102849;1318;139610;-78
2021/12/26 05:13:24;;;;;;;3.70;3.60;;;;;;;-5.82;63.52;100236.80;102890;1318;95285;-78
2021/12/26 05:15:52;;;;;;;3.60;3.50;;;;;;;-5.74;63.07;100239.53;102855;1318;139442;-78
2021/12/26 05:18:22;;;;;;;3.60;3.50;;;;;;;-5.66;62.85;100238.08;102817;1320;110336;-78
2021/12/26 05:20:56;;;;;;;3.40;3.30;;;;;;;-5.57;62.61;100240.84;103072;1318;95198;-78
2021/12/26 05:23:23;;;;;;;3.30;3.20;;;;;;;-5.41;62.52;100244.17;102690;1319;140779;-78
2021/12/26 05:25:51;;;;;;;3.50;3.40;;;;;;;-5.35;61.84;100249.23;102847;1320;109705;-78
2021/12/26 05:28:19;;;;;;;3.10;3.00;;;;;;;-5.23;61.51;100246.01;102525;1317;140569;-78
2021/12/26 05:30:47;;;;;;;3.20;3.10;;;;;;;-5.15;61.45;100252.02;102316;1318;95426;-78
2021/12/26 05:33:18;;;;;;;3.00;2.90;;;;;;;-5.07;60.83;100255.56;102759;1318;139689;-78
2021/12/26 05:35:48;;;;;;;3.00;2.90;;;;;;;-5.03;60.39;100261.40;102930;1317;109691;-78
2021/12/26 05:38:16;;;;;;;2.90;2.80;;;;;;;-5.02;60.27;100264.71;102936;1316;110343;-78
2021/12/26 05:40:46;;;;;;;2.70;2.60;;;;;;;-4.96;60.09;100267.70;102787;1320;141503;-78
2021/12/26 05:43:14;;;;;;;3.00;2.90;;;;;;;-4.96;60.25;100271.70;102878;1319;95628;-79
2021/12/26 05:45:42;;;;;;;2.90;2.80;;;;;;;-4.86;60.04;100263.03;102748;1318;140462;-79
2021/12/26 05:48:14;;;;;;;3.00;2.90;;;;;;;-4.88;59.78;100258.30;102853;1317;110315;-79
2021/12/26 05:50:43;;;;;;;2.80;2.70;;;;;;;-4.90;59.76;100256.15;102764;1319;95288;-78
2021/12/26 05:53:31;;;;;;;2.90;2.80;;;;;;;-4.95;59.75;100260.48;102833;1317;140308;-79
2021/12/26 05:55:58;;;;;;;3.00;2.90;;;;;;;-4.91;59.91;100262.52;102424;1320;109459;-78
2021/12/26 05:58:26;;;;;;;2.90;2.80;;;;;;;-4.94;59.95;100265.87;102845;1318;139430;-78
2021/12/26 06:00:55;;;;;;;3.10;3.00;;;;;;;-5.04;59.89;100269.00;102801;1318;95224;-79
2021/12/26 06:03:23;;;;;;;3.10;3.00;;;;;;;-5.05;59.84;100276.77;102749;1317;139470;-78
2021/12/26 06:05:51;;;;;;;3.10;3.00;;;;;;;-5.04;59.97;100278.69;102852;1318;108275;-78
2021/12/26 06:08:22;;;;;;;3.10;3.00;;;;;;;-5.14;60.34;100283.02;102966;1317;110333;-79
2021/12/26 06:10:50;;;;;;;2.90;2.80;;;;;;;-5.16;60.59;100282.08;102750;1320;140498;-78
2021/12/26 06:13:17;;;;;;;3.00;2.90;;;;;;;-5.21;60.97;100283.30;102935;1318;95064;-78
2021/12/26 06:15:45;;;;;;;2.80;2.70;;;;;;;-5.18;61.27;100282.19;102749;1319;141116;-78
2021/12/26 06:18:13;;;;;;;3.10;3.00;;;;;;;-5.23;61.66;100294.15;102858;1317;110467;-78
2021/12/26 06:20:59;;;;;;;3.10;3.00;;;;;;;-5.16;61.57;100297.47;102929;1322;96015;-78
2021/12/26 06:23:50;;;;;;;2.90;2.80;;;;;;;-5.19;61.89;100298.06;102829;1315;139966;-78
2021/12/26 06:26:24;;;;;;;2.80;2.70;;;;;;;-5.25;62.09;100297.85;102910;1322;109664;-78
2021/12/26 06:28:52;;;;;;;3.00;2.90;;;;;;;-5.18;62.21;100297.94;102702;1317;140449;-78
2021/12/26 06:31:55;;;;;;;3.20;3.10;;;;;;;-5.17;62.31;100305.60;102334;1323;95261;-79
2021/12/26 06:34:48;;;;;;;2.80;2.70;;;;;;;-5.24;62.30;100304.83;102752;1317;140261;-78
2021/12/26 06:37:35;;;;;;;3.20;3.10;;;;;;;-5.29;62.64;100308.98;102855;1318;108385;-78
2021/12/26 06:40:21;;;;;;;2.80;2.70;;;;;;;-5.16;62.78;100314.98;102771;1318;141807;-78
2021/12/26 06:43:08;;;;;;;2.80;2.70;;;;;;;-5.10;62.82;100317.80;102298;1318;95701;-79
2021/12/26 06:45:55;;;;;;;3.00;2.90;;;;;;;-5.05;63.02;100313.11;102807;1318;140734;-78
2021/12/26 06:48:41;;;;;;;2.80;2.70;;;;;;;-4.94;62.98;100312.98;103071;1316;108087;-79
2021/12/26 06:51:10;;;;;;;3.00;2.90;;;;;;;-4.95;62.96;100315.71;103003;1317;110389;-78
2021/12/26 06:53:38;;;;;;;2.80;2.70;;;;;;;-4.86;62.93;100315.50;102948;1317;140619;-79
2021/12/26 06:56:05;;;;;;;3.10;3.00;;;;;;;-4.69;62.66;100318.68;102308;1318;95201;-79
2021/12/26 06:58:33;;;;;;;2.80;2.70;;;;;;;-4.64;62.63;100325.23;102903;1318;139998;-79
2021/12/26 07:01:01;;;;;;;2.60;2.50;;;;;;;-4.63;62.56;100326.87;103215;1318;110885;-80
2021/12/26 07:03:29;;;;;;;3.00;2.90;;;;;;;-4.62;62.91;100328.45;103023;1317;141220;-79
2021/12/26 07:05:57;;;;;;;2.70;2.60;;;;;;;-4.49;62.71;100320.02;103034;1318;94483;-79
2021/12/26 07:08:26;;;;;;;2.60;2.50;;;;;;;-4.42;62.56;100323.41;102972;1320;109613;-78
2021/12/26 07:10:57;;;;;;;2.80;2.70;;;;;;;-4.49;62.86;100325.21;102859;1318;140202;-78
2021/12/26 07:13:25;;;;;;;2.50;2.40;;;;;;;-4.54;63.02;100318.50;102881;1318;95932;-79
2021/12/26 07:15:52;;;;;;;2.80;2.70;;;;;;;-4.41;63.48;100320.10;103154;1318;141122;-79
2021/12/26 07:18:20;;;;;;;2.50;2.40;;;;;;;-4.24;62.87;100321.19;102761;1315;108533;-78
2021/12/26 07:20:49;;;;;;;2.50;2.40;;;;;;;-4.30;62.98;100326.55;103017;1318;109247;-79
2021/12/26 07:23:37;;;;;;;2.70;2.60;;;;;;;-4.33;63.59;100330.60;102960;1318;139295;-79
2021/12/26 07:26:13;;;;;;;2.60;2.50;;;;;;;-4.30;63.91;100336.93;103314;1317;95716;-80
2021/12/26 07:28:41;;;;;;;2.50;2.40;;;;;;;-4.26;64.03;100334.48;102757;1320;139210;-79
2021/12/26 07:31:21;;;;;;;2.50;2.40;;;;;;;-4.22;64.49;100341.36;102783;1320;110229;-79
2021/12/26 07:33:56;;;;;;;2.50;2.40;;;;;;;-4.14;64.41;100342.65;102707;1318;140062;-79
2021/12/26 07:36:27;;;;;;;2.50;2.40;;;;;;;-4.04;64.47;100349.21;102640;1318;95814;-80
2021/12/26 07:39:04;;;;;;;2.40;2.30;;;;;;;-3.95;64.33;100352.80;102697;1318;108427;-79
2021/12/26 07:41:36;;;;;;;2.50;2.40;;;;;;;-3.93;64.57;100355.29;102705;1316;138694;-79
2021/12/26 07:44:05;;;;;;;2.60;2.50;;;;;;;-3.82;64.42;100353.89;103167;1317;95169;-79
2021/12/26 07:46:52;;;;;;;2.70;2.60;;;;;;;-3.65;63.95;100355.29;102929;1317;139518;-79
2021/12/26 07:49:21;;;;;;;2.40;2.30;;;;;;;-3.47;63.65;100356.84;102792;1321;109620;-80
2021/12/26 07:52:15;;;;;;;2.40;2.30;;;;;;;-3.43;63.14;100361.48;102879;1318;139449;-78
2021/12/26 07:55:03;;;;;;;2.50;2.40;;;;;;;-3.52;62.66;100368.34;102919;1319;95312;-80
2021/12/26 07:57:49;;;;;;;2.40;2.30;;;;;;;-3.51;63.03;100365.09;102935;1317;139532;-80
2021/12/26 08:00:35;;;;;;;2.40;2.30;;;;;;;-3.45;62.59;100370.64;103040;1319;108905;-80
2021/12/26 08:03:42;;;;;;;2.40;2.30;;;;;;;-3.37;62.58;100376.95;102542;1322;139495;-79
2021/12/26 08:06:32;;;;;;;2.40;2.30;;;;;;;-3.24;62.13;100373.17;102992;1317;95030;-79
2021/12/26 08:09:00;;;;;;;2.10;2.10;;;;;;;-3.12;61.58;100370.38;102986;1318;96187;-79
2021/12/26 08:11:29;;;;;;;2.30;2.20;;;;;;;-3.10;61.37;100371.11;102718;1318;140937;-79
2021/12/26 08:13:57;;;;;;;2.30;2.20;;;;;;;-3.08;61.28;100370.30;102774;1322;110304;-79
2021/12/26 08:16:26;;;;;;;2.30;2.20;;;;;;;-2.92;61.10;100369.02;102879;1318;140934;-79
2021/12/26 08:18:55;;;;;;;2.20;2.10;;;;;;;-2.96;60.58;100372.73;103060;1318;95167;-78
2021/12/26 08:21:22;;;;;;;2.10;2.10;;;;;;;-3.00;60.65;100373.31;102987;1318;109776;-79
2021/12/26 08:23:50;;;;;;;2.20;2.10;;;;;;;-2.96;60.82;100373.77;102883;1317;140684;-80
2021/12/26 08:26:18;;;;;;;2.20;2.10;;;;;;;-3.03;60.45;100378.11;103057;1317;95230;-78
2021/12/26 08:28:46;;;;;;;2.40;2.30;;;;;;;-3.05;60.28;100380.98;102501;1320;139816;-79
2021/12/26 08:31:16;;;;;;;2.40;2.30;;;;;;;-3.14;60.29;100383.68;102743;1317;109843;-78
2021/12/26 08:33:44;;;;;;;2.70;2.60;;;;;;;-3.27;60.46;100387.65;102767;1317;138472;-79
2021/12/26 08:36:12;;;;;;;2.80;2.70;;;;;;;-3.48;60.65;100386.85;102848;1317;95566;-79
2021/12/26 08:38:40;;;;;;;2.90;2.80;;;;;;;-3.61;61.11;100393.40;102974;1321;95280;-79
2021/12/26 08:41:07;;;;;;;3.10;3.00;;;;;;;-3.64;61.13;100396.77;102902;1316;141381;-78
2021/12/26 08:43:35;;;;;;;3.00;2.90;;;;;;;-3.64;61.42;100390.20;102999;1317;110175;-80
2021/12/26 08:46:08;;;;;;;3.10;3.00;;;;;;;-3.64;61.22;100391.38;102783;1318;139773;-79
2021/12/26 08:48:36;;;;;;;3.00;2.90;;;;;;;-3.81;61.61;100397.11;102489;1316;95253;-80
2021/12/26 08:51:04;;;;;;;3.20;3.10;;;;;;;-3.86;62.04;100401.83;102893;1317;107398;-79
2021/12/26 08:53:32;;;;;;;3.30;3.20;;;;;;;-3.96;62.58;100402.53;102430;1317;139536;-78
2021/12/26 08:56:01;;;;;;;2.90;2.80;;;;;;;-3.92;62.55;100403.36;102768;1317;95264;-78
2021/12/26 08:58:28;;;;;;;3.10;3.00;;;;;;;-3.93;62.72;100402.27;102684;1317;138766;-79
2021/12/26 09:00:56;;;;;;;2.80;2.70;;;;;;;-3.90;62.64;100409.85;102917;1317;108655;-79
2021/12/26 09:03:24;;;;;;;3.20;3.10;;;;;;;-3.94;62.92;100411.27;102900;1317;109636;-79
2021/12/26 09:05:52;;;;;;;3.20;3.10;;;;;;;-3.95;63.13;100412.45;102537;1318;141403;-79
2021/12/26 09:08:21;;;;;;;3.20;3.10;;;;;;;-3.98;63.31;100422.59;103067;1317;95282;-81
2021/12/26 09:10:49;;;;;;;2.90;2.80;;;;;;;-4.00;63.67;100416.12;102991;1317;140309;-78
2021/12/26 09:13:17;;;;;;;3.20;3.10;;;;;;;-3.94;63.81;100413.89;102987;1316;110282;-79
2021/12/26 09:15:44;;;;;;;3.10;3.00;;;;;;;-3.96;63.94;100410.69;102913;1315;139611;-79
2021/12/26 09:18:12;;;;;;;3.10;3.00;;;;;;;-3.91;64.07;100409.30;103160;1317;95814;-79
2021/12/26 09:20:40;;;;;;;3.20;3.10;;;;;;;-3.83;64.30;100406.41;103069;1317;109648;-79
2021/12/26 09:23:08;;;;;;;2.90;2.80;;;;;;;-3.84;64.09;100409.16;102884;1317;139009;-79
2021/12/26 09:25:36;;;;;;;3.20;3.10;;;;;;;-3.93;64.32;100402.45;103164;1317;95309;-79
2021/12/26 09:28:04;;;;;;;3.20;3.10;;;;;;;-4.06;64.77;100402.03;103120;1317;140733;-79
2021/12/26 09:30:32;;;;;;;3.00;2.90;;;;;;;-3.99;64.93;100402.96;103138;1317;109507;-79
2021/12/26 09:32:59;;;;;;;3.00;2.90;;;;;;;-3.88;64.89;100406.27;103228;1315;110447;-79
2021/12/26 09:35:27;;;;;;;3.10;3.00;;;;;;;-3.87;64.77;100405.60;103142;1317;140661;-79
2021/12/26 09:37:55;;;;;;;2.90;2.80;;;;;;;-3.84;64.74;100404.13;103408;1314;95332;-80
2021/12/26 09:40:23;;;;;;;2.90;2.80;;;;;;;-3.68;65.12;100403.23;102985;1316;139637;-79
2021/12/26 09:42:51;;;;;;;2.80;2.70;;;;;;;-3.54;64.79;100391.19;102386;1317;108815;-79
2021/12/26 09:45:19;;;;;;;2.90;2.80;;;;;;;-3.53;64.61;100386.36;102366;1317;95241;-79
2021/12/26 09:47:51;;;;;;;3.00;2.90;;;;;;;-3.51;64.52;100382.25;102422;1317;138899;-78
2021/12/26 09:50:20;;;;;;;2.80;2.70;;;;;;;-3.43;64.52;100384.06;102639;1317;108453;-79
2021/12/26 09:52:50;;;;;;;2.70;2.60;;;;;;;-3.32;64.14;100385.09;102838;1316;140277;-79
2021/12/26 09:55:19;;;;;;;2.80;2.70;;;;;;;-3.26;63.97;100389.24;102917;1318;95688;-79
2021/12/26 09:57:47;;;;;;;2.60;2.50;;;;;;;-3.16;63.78;100392.65;102588;1317;141751;-78
2021/12/26 10:00:29;;;;;;;2.70;2.60;;;;;;;-3.06;63.81;100393.98;102880;1317;108856;-79
2021/12/26 10:03:22;;;;;;;2.80;2.70;;;;;;;-2.95;63.43;100397.77;103089;1314;108457;-79
2021/12/26 10:05:54;;;;;;;2.60;2.50;;;;;;;-2.94;63.25;100394.50;102641;1317;140608;-78
2021/12/26 10:08:22;;;;;;;2.70;2.60;;;;;;;-2.95;63.36;100394.15;102602;1317;95157;-78
2021/12/26 10:11:11;;;;;;;2.80;2.70;;;;;;;-2.89;63.39;100388.40;102743;1315;140206;-78
2021/12/26 10:13:51;;;;;;;2.80;2.70;;;;;;;-2.75;63.41;100395.02;102845;1317;108013;-78
2021/12/26 10:16:22;;;;;;;2.50;2.40;;;;;;;-2.72;63.28;100395.64;102784;1314;142539;-79
2021/12/26 10:18:51;;;;;;;2.50;2.40;;;;;;;-2.72;63.61;100393.73;102898;1317;95142;-78
2021/12/26 10:21:39;;;;;;;2.70;2.60;;;;;;;-2.78;63.39;100394.09;102855;1316;109547;-78
2021/12/26 10:24:22;;;;;;;2.80;2.70;;;;;;;-2.77;63.94;100396.00;102359;1317;139463;-79
2021/12/26 10:27:01;;;;;;;2.80;2.70;;;;;;;-2.77;64.15;100392.35;102711;1318;95175;-78
2021/12/26 10:29:39;;;;;;;2.40;2.30;;;;;;;-2.78;64.42;100391.83;102614;1318;140227;-79
2021/12/26 10:32:07;;;;;;;2.80;2.70;;;;;;;-2.69;64.62;100393.80;102892;1317;109181;-79
2021/12/26 10:34:58;;;;;;;2.80;2.70;;;;;;;-2.69;64.73;100395.00;102573;1317;140739;-79
2021/12/26 10:37:37;;;;;;;2.60;2.50;;;;;;;-2.59;64.88;100400.15;103130;1318;95687;-79
2021/12/26 10:40:11;;;;;;;2.50;2.40;;;;;;;-2.58;64.75;100403.31;102795;1317;139896;-80
2021/12/26 10:42:45;;;;;;;2.40;2.30;;;;;;;-2.55;64.88;100400.60;103085;1315;108322;-81
2021/12/26 10:45:15;;;;;;;2.70;2.60;;;;;;;-2.55;64.91;100398.34;102701;1316;110177;-80
2021/12/26 10:47:45;;;;;;;2.70;2.60;;;;;;;-2.40;65.17;100398.05;102671;1316;139744;-79
2021/12/26 10:50:16;;;;;;;2.50;2.40;;;;;;;-2.21;64.51;100397.84;102617;1317;95307;-81
2021/12/26 10:52:50;;;;;;;2.30;2.20;;;;;;;-2.17;64.47;100395.16;102743;1319;142919;-80
2021/12/26 10:55:20;;;;;;;2.40;2.30;;;;;;;-2.13;64.46;100397.87;102821;1317;108174;-80
2021/12/26 10:57:51;;;;;;;2.60;2.50;;;;;;;-2.13;64.53;100409.01;102618;1318;138602;-78
2021/12/26 11:00:28;;;;;;;2.40;2.30;;;;;;;-2.08;64.30;100406.00;102593;1316;95077;-79
2021/12/26 11:03:03;;;;;;;2.30;2.20;;;;;;;-2.11;64.45;100411.66;102810;1317;109188;-79
2021/12/26 11:05:40;;;;;;;2.60;2.50;;;;;;;-2.14;64.50;100410.36;102908;1318;140095;-79
2021/12/26 11:08:26;;;;;;;2.70;2.60;;;;;;;-2.18;64.45;100407.48;102757;1317;95279;-79
2021/12/26 11:10:55;;;;;;;2.40;2.30;;;;;;;-2.21;64.75;100405.84;102690;1317;140581;-79
2021/12/26 11:13:28;;;;;;;2.40;2.30;;;;;;;-2.23;64.90;100402.30;102976;1318;108351;-79
2021/12/26 11:16:04;;;;;;;2.50;2.40;;;;;;;-2.22;65.00;100404.77;102873;1316;140326;-79
2021/12/26 11:18:33;;;;;;;2.40;2.30;;;;;;;-2.20;64.97;100404.47;103220;1318;95147;-79
2021/12/26 11:21:06;;;;;;;2.40;2.30;;;;;;;-2.13;64.91;100403.77;102800;1318;95783;-79
2021/12/26 11:23:38;;;;;;;2.40;2.30;;;;;;;-2.04;65.06;100405.77;102498;1318;139628;-79
2021/12/26 11:26:13;;;;;;;2.40;2.30;;;;;;;-1.97;64.96;100408.33;103050;1317;110629;-79
2021/12/26 11:28:43;;;;;;;2.40;2.30;;;;;;;-1.79;64.72;100408.96;103031;1318;138951;-79
2021/12/26 11:31:15;;;;;;;2.20;2.10;;;;;;;-1.74;64.38;100409.42;103149;1314;95167;-79
2021/12/26 11:33:45;;;;;;;2.20;2.10;;;;;;;-1.67;64.15;100410.80;103100;1318;140972;-79
2021/12/26 11:36:12;;;;;;;2.20;2.10;;;;;;;-1.58;64.15;100403.70;102918;1318;109664;-79